Terminal Aerodrome Forecast
Issued by NWS

Home | Current Version | Previous Version | Text Only | Print | Product List | Glossary On
Versions: 1 2 3 4 5 6 7 8 9 10 11 12 13 14 15 16 17 18 19 20 21 22 23 24
389
FTUS43 KDLH 231137
TAFHYR
TAF
KHYR 231137Z 2312/2412 VRB04KT P6SM SKC
     FM231500 13007KT P6SM SCT250
     FM231800 13011G18KT P6SM BKN250
     FM232300 17011KT P6SM VCTS SCT050 BKN100CB
      TEMPO 2323/2402 5SM TSRA BKN050CB
     FM240600 20007KT P6SM VCSH OVC050=

USA.gov is the U.S. government's official web portal to all federal, state and local government web resources and services.